CMA CGM Tosca — FMEL — position and weather

sailwx.info

Track history (hours):
 
Tides and Currents Weather Stations Pressure Air Temp Water Temp Dewpoint Dewpoint Depression Visibility Wind Speed Wind Dir Waves Ship Positions

CMA CGM Tosca

Last reported at 2015-Jul-30 20:13 UTC. Time now 2015-Jul-31 09:24 UTC.
Position N 33°14' E 027°21'.

Length 334 m; draft 13.4 m.

Type: Ship. MMSI: 228335900.

Date/timePositionNaut miles runAvg speedWind from/ knotsBaromVisibWave heightAir tempDewpointWater temp
2015-Jul-30 20:13N 33°14' E 027°21'6113.1
2015-Jul-30 15:32N 32°52' E 028°30'1813.1
2015-Jul-30 14:07N 32°46' E 028°50'913.0
2015-Jul-30 13:24N 32°43' E 029°01'1613.2
2015-Jul-30 12:11N 32°37' E 029°19'1013.1
2015-Jul-30 11:26N 32°33' E 029°30'1112.9
2015-Jul-30 10:33N 32°29' E 029°42'1313.0
2015-Jul-30 09:33N 32°25' E 029°57'1313.4
2015-Jul-30 08:33N 32°20' E 030°12'1313.5
2015-Jul-30 07:33N 32°15' E 030°27'1413.7
2015-Jul-30 06:33N 32°11' E 030°42'1413.7
2015-Jul-30 05:31N 32°06' E 030°57'4013.4
2015-Jul-30 02:33N 31°52' E 031°41'1313.2
2015-Jul-30 01:33N 31°46' E 031°55'1513.5
2015-Jul-30 00:29N 31°37' E 032°08'1313.8
2015-Jul-29 23:33N 31°29' E 032°20'1212.3
2015-Jul-29 22:34N 31°17' E 032°22'9 9.2
2015-Jul-29 21:33N 31°08' E 032°19'1010.0
2015-Jul-29 20:33N 30°58' E 032°19'1210.2
2015-Jul-29 19:20N 30°45' E 032°20'62 3.7
2015-Jul-29 02:22N 29°44' E 032°34'  
Track history (hours):
 
Tides and Currents Weather Stations Pressure Air Temp Water Temp Dewpoint Dewpoint Depression Visibility Wind Speed Wind Dir Waves Ship Positions

CMA CGM Tosca

Last reported at 2015-Jul-30 20:13 UTC. Time now 2015-Jul-31 09:24 UTC.
Position N 33°14' E 027°21'.

Length 334 m; draft 13.4 m.

Type: Ship. MMSI: 228335900.

Date/timePositionNaut miles runAvg speedWind from/ knotsBaromVisibWave heightAir tempDewpointWater temp
2015-Jul-30 20:13N 33°14' E 027°21'6113.1
2015-Jul-30 15:32N 32°52' E 028°30'1813.1
2015-Jul-30 14:07N 32°46' E 028°50'913.0
2015-Jul-30 13:24N 32°43' E 029°01'1613.2
2015-Jul-30 12:11N 32°37' E 029°19'1013.1
2015-Jul-30 11:26N 32°33' E 029°30'1112.9
2015-Jul-30 10:33N 32°29' E 029°42'1313.0
2015-Jul-30 09:33N 32°25' E 029°57'1313.4
2015-Jul-30 08:33N 32°20' E 030°12'1313.5
2015-Jul-30 07:33N 32°15' E 030°27'1413.7
2015-Jul-30 06:33N 32°11' E 030°42'1413.7
2015-Jul-30 05:31N 32°06' E 030°57'4013.4
2015-Jul-30 02:33N 31°52' E 031°41'1313.2
2015-Jul-30 01:33N 31°46' E 031°55'1513.5
2015-Jul-30 00:29N 31°37' E 032°08'1313.8
2015-Jul-29 23:33N 31°29' E 032°20'1212.3
2015-Jul-29 22:34N 31°17' E 032°22'9 9.2
2015-Jul-29 21:33N 31°08' E 032°19'1010.0
2015-Jul-29 20:33N 30°58' E 032°19'1210.2
2015-Jul-29 19:20N 30°45' E 032°20'62 3.7
2015-Jul-29 02:22N 29°44' E 032°34'  

Dump ship's entire track history